Time;durP1;ratioP1;P1;durP2;ratioP2;P2;SDS_P1;SDS_P2;PMS_P1;PMS_P2;Temp;Humidity;BMP_temperature;BMP_pressure;BME280_temperature;BME280_humidity;BME280_pressure;Samples;Min_cycle;Max_cycle;Signal;HPM_P1;HPM_P2
2022/12/06 00:01:31;;;;;;;15.65;8.80;;;1.70;99.90;;;;;;5027744;28;20104;-63
2022/12/06 00:03:58;;;;;;;27.85;8.30;;;1.70;99.90;;;;;;5026361;28;20559;-62
2022/12/06 00:06:26;;;;;;;14.02;7.95;;;1.70;99.90;;;;;;5025475;28;20025;-64
2022/12/06 00:08:53;;;;;;;14.52;8.50;;;1.70;99.90;;;;;;5027806;28;20038;-62
2022/12/06 00:11:20;;;;;;;20.85;8.27;;;1.70;99.90;;;;;;5026561;28;20407;-64
2022/12/06 00:13:47;;;;;;;18.15;8.93;;;1.80;99.90;;;;;;5021201;28;20125;-63
2022/12/06 00:16:15;;;;;;;16.33;8.82;;;1.70;99.90;;;;;;5027135;28;20734;-62
2022/12/06 00:18:42;;;;;;;16.40;9.05;;;1.80;99.90;;;;;;5026970;28;20622;-62
2022/12/06 00:21:13;;;;;;;26.35;11.20;;;1.80;99.90;;;;;;5023092;28;20041;-64
2022/12/06 00:23:42;;;;;;;21.98;12.77;;;1.80;99.90;;;;;;5013024;28;20061;-65
2022/12/06 00:26:08;;;;;;;30.98;11.85;;;1.80;99.90;;;;;;5023090;28;20510;-63
2022/12/06 00:28:34;;;;;;;27.35;9.90;;;1.80;99.90;;;;;;5022422;28;20036;-62
2022/12/06 00:31:02;;;;;;;37.17;11.27;;;1.70;99.90;;;;;;5025616;28;20084;-63
2022/12/06 00:33:28;;;;;;;44.60;12.13;;;1.80;99.90;;;;;;5022308;28;20605;-62
2022/12/06 00:36:00;;;;;;;24.50;11.20;;;1.80;99.90;;;;;;5026734;28;20037;-63
2022/12/06 00:38:27;;;;;;;26.35;11.75;;;1.80;99.90;;;;;;5023162;28;20068;-64
2022/12/06 00:41:03;;;;;;;21.27;10.70;;;1.80;99.90;;;;;;5024258;28;20044;-63
2022/12/06 00:43:28;;;;;;;43.40;11.73;;;1.80;99.90;;;;;;5023288;28;20040;-63
2022/12/06 00:45:54;;;;;;;34.42;10.80;;;1.80;99.90;;;;;;5026238;28;20026;-61
2022/12/06 00:48:20;;;;;;;27.42;12.30;;;1.70;99.90;;;;;;5026036;28;20445;-63
2022/12/06 00:50:46;;;;;;;21.85;11.77;;;1.70;99.90;;;;;;5022429;28;21511;-63
2022/12/06 00:53:11;;;;;;;28.20;12.05;;;1.80;99.90;;;;;;5024088;28;20598;-63
2022/12/06 00:55:37;;;;;;;20.05;10.98;;;1.70;99.90;;;;;;5024747;28;20477;-62
2022/12/06 00:58:03;;;;;;;26.55;11.68;;;1.70;99.90;;;;;;5022527;28;20032;-65
2022/12/06 01:00:28;;;;;;;25.30;11.05;;;1.70;99.90;;;;;;5017141;28;20032;-60
2022/12/06 01:02:56;;;;;;;26.60;11.90;;;1.80;99.90;;;;;;5013483;28;20615;-63
2022/12/06 01:05:21;;;;;;;22.58;11.55;;;1.70;99.90;;;;;;5021355;28;20029;-62
2022/12/06 01:07:47;;;;;;;20.60;11.20;;;1.80;99.90;;;;;;5024703;28;20033;-64
2022/12/06 01:10:12;;;;;;;27.85;11.23;;;1.70;99.90;;;;;;5027244;28;20033;-63
2022/12/06 01:12:38;;;;;;;27.38;11.90;;;1.80;99.90;;;;;;5024202;28;20033;-62
2022/12/06 01:15:04;;;;;;;18.48;10.13;;;1.80;99.90;;;;;;5023828;28;20114;-62
2022/12/06 01:17:29;;;;;;;22.85;10.10;;;1.80;99.90;;;;;;5025950;28;20083;-63
2022/12/06 01:19:56;;;;;;;23.48;11.52;;;1.80;99.90;;;;;;5020562;28;20080;-62
2022/12/06 01:22:22;;;;;;;23.35;10.65;;;1.80;99.90;;;;;;5027777;28;20057;-62
2022/12/06 01:24:47;;;;;;;19.70;10.55;;;1.80;99.90;;;;;;5001844;28;20036;-63
2022/12/06 01:27:13;;;;;;;21.33;10.27;;;1.70;99.90;;;;;;5026335;28;20038;-63
2022/12/06 01:29:38;;;;;;;21.20;10.45;;;1.80;99.90;;;;;;5024907;28;20141;-62
2022/12/06 01:32:04;;;;;;;25.60;10.82;;;1.70;99.90;;;;;;5015260;28;20056;-59
2022/12/06 01:34:30;;;;;;;23.85;10.88;;;1.80;99.90;;;;;;5017728;28;20060;-62
2022/12/06 01:36:55;;;;;;;26.10;11.57;;;1.80;99.90;;;;;;5025693;28;20049;-62
2022/12/06 01:39:21;;;;;;;21.55;11.77;;;1.80;99.90;;;;;;5025836;28;20407;-62
2022/12/06 01:41:46;;;;;;;30.95;14.25;;;1.80;99.90;;;;;;5022189;28;20073;-63
2022/12/06 01:44:37;;;;;;;27.10;13.82;;;1.80;99.90;;;;;;5025260;28;20022;-63
2022/12/06 01:47:02;;;;;;;19.27;10.73;;;1.80;99.90;;;;;;5022375;28;20034;-62
2022/12/06 01:49:33;;;;;;;31.67;12.55;;;1.80;99.90;;;;;;5022418;28;20040;-63
2022/12/06 01:52:04;;;;;;;46.20;14.85;;;1.80;99.90;;;;;;5024871;28;20080;-64
2022/12/06 01:54:31;;;;;;;36.33;14.82;;;1.80;99.90;;;;;;5017029;28;20054;-63
2022/12/06 01:56:57;;;;;;;27.92;14.15;;;1.80;99.90;;;;;;5022164;28;20037;-64
2022/12/06 01:59:25;;;;;;;24.73;12.40;;;1.90;99.90;;;;;;5025152;28;20056;-63
2022/12/06 02:01:51;;;;;;;22.00;11.70;;;1.90;99.90;;;;;;5023446;28;20030;-63
2022/12/06 02:04:17;;;;;;;24.92;12.57;;;1.90;99.90;;;;;;5023599;28;20033;-62
2022/12/06 02:06:44;;;;;;;36.88;14.20;;;1.90;99.90;;;;;;5025029;28;20396;-62
2022/12/06 02:09:11;;;;;;;33.13;13.45;;;1.90;99.90;;;;;;5024919;28;20041;-63
2022/12/06 02:11:37;;;;;;;37.25;14.10;;;2.00;99.90;;;;;;5023108;28;20061;-62
2022/12/06 02:14:06;;;;;;;29.98;14.57;;;1.90;99.90;;;;;;5024641;28;20033;-63
2022/12/06 02:16:50;;;;;;;57.50;13.45;;;1.90;99.90;;;;;;5025935;28;20037;-63
2022/12/06 02:19:34;;;;;;;22.50;11.90;;;1.90;99.90;;;;;;5025301;28;20404;-64
2022/12/06 02:22:16;;;;;;;30.60;14.80;;;1.90;99.90;;;;;;5021271;28;20090;-63
2022/12/06 02:24:56;;;;;;;33.60;13.40;;;1.90;99.90;;;;;;5019464;28;20030;-62
2022/12/06 02:27:43;;;;;;;24.10;12.13;;;2.00;99.90;;;;;;5000085;28;20049;-63
2022/12/06 02:30:29;;;;;;;27.02;12.52;;;2.00;99.90;;;;;;5025199;28;20026;-62
2022/12/06 02:33:04;;;;;;;27.08;12.57;;;2.00;99.90;;;;;;5023738;28;20113;-63
2022/12/06 02:35:45;;;;;;;28.52;12.70;;;2.00;99.90;;;;;;5025942;28;20056;-63
2022/12/06 02:38:27;;;;;;;30.52;12.73;;;2.00;99.90;;;;;;5023752;28;20499;-63
2022/12/06 02:41:00;;;;;;;25.95;12.48;;;2.00;99.90;;;;;;5022193;28;20036;-62
2022/12/06 02:43:36;;;;;;;26.50;13.20;;;2.00;99.90;;;;;;5021592;28;20083;-63
2022/12/06 02:46:03;;;;;;;28.10;12.68;;;2.00;99.90;;;;;;5025844;28;20033;-62
2022/12/06 02:48:31;;;;;;;28.92;11.35;;;2.00;99.90;;;;;;5025755;28;20036;-62
2022/12/06 02:51:05;;;;;;;33.03;13.00;;;2.00;99.90;;;;;;5022425;28;20036;-62
2022/12/06 02:53:35;;;;;;;27.77;12.55;;;2.00;99.90;;;;;;5023273;28;20030;-63
2022/12/06 02:56:01;;;;;;;35.03;10.68;;;2.10;99.90;;;;;;5022620;28;20034;-62
2022/12/06 02:58:27;;;;;;;17.15;9.38;;;2.10;99.90;;;;;;5029835;28;20022;-62
2022/12/06 03:00:59;;;;;;;16.60;8.90;;;2.10;99.90;;;;;;5028296;28;20027;-63
2022/12/06 03:03:46;;;;;;;22.02;9.00;;;2.10;99.90;;;;;;5023801;28;20040;-64
2022/12/06 03:06:38;;;;;;;15.00;8.07;;;2.10;99.90;;;;;;5027478;28;20104;-62
2022/12/06 03:09:18;;;;;;;14.30;8.07;;;2.10;99.90;;;;;;5022058;28;20114;-64
2022/12/06 03:11:55;;;;;;;21.98;9.02;;;2.10;99.90;;;;;;5023443;28;20442;-63
2022/12/06 03:14:23;;;;;;;17.15;8.85;;;2.10;99.90;;;;;;5025659;28;20051;-63
2022/12/06 03:17:09;;;;;;;44.92;16.48;;;2.10;99.90;;;;;;5024843;28;20155;-63
2022/12/06 03:19:39;;;;;;;38.35;12.90;;;2.20;99.90;;;;;;5025784;28;20037;-63
2022/12/06 03:22:32;;;;;;;26.92;12.32;;;2.20;99.90;;;;;;5027732;28;20018;-63
2022/12/06 03:24:59;;;;;;;17.85;9.93;;;2.20;99.90;;;;;;5022556;28;20434;-63
2022/12/06 03:27:27;;;;;;;36.75;12.52;;;2.20;99.90;;;;;;5010139;28;20083;-62
2022/12/06 03:30:03;;;;;;;19.10;10.10;;;2.20;99.90;;;;;;5025943;28;20112;-63
2022/12/06 03:32:32;;;;;;;32.15;8.10;;;2.20;99.90;;;;;;5028726;28;20025;-63
2022/12/06 03:35:05;;;;;;;20.13;9.48;;;2.30;99.90;;;;;;5023675;28;20029;-63
2022/12/06 03:37:32;;;;;;;28.42;7.95;;;2.30;99.90;;;;;;5026313;28;20044;-63
2022/12/06 03:40:10;;;;;;;20.30;7.20;;;2.30;99.90;;;;;;5023909;28;20021;-62
2022/12/06 03:42:36;;;;;;;20.25;8.20;;;2.30;99.90;;;;;;5024941;28;20510;-63
2022/12/06 03:45:03;;;;;;;32.63;9.20;;;2.30;99.90;;;;;;5026204;28;20030;-64
2022/12/06 03:47:28;;;;;;;34.60;8.25;;;2.30;99.90;;;;;;5029556;28;20036;-64
2022/12/06 03:49:58;;;;;;;45.35;14.13;;;2.30;99.90;;;;;;5025616;28;20033;-64
2022/12/06 03:52:26;;;;;;;23.92;11.23;;;2.30;99.90;;;;;;5027860;28;20068;-64
2022/12/06 03:54:52;;;;;;;39.35;16.65;;;2.30;99.90;;;;;;5022693;28;21043;-61
2022/12/06 03:57:18;;;;;;;25.42;11.50;;;2.30;99.90;;;;;;5027844;28;20034;-63
2022/12/06 03:59:45;;;;;;;36.67;9.48;;;2.40;99.90;;;;;;5025232;28;20057;-64
2022/12/06 04:02:10;;;;;;;28.15;7.18;;;2.40;99.90;;;;;;5029633;28;20022;-63
2022/12/06 04:04:36;;;;;;;16.77;7.82;;;2.40;99.90;;;;;;5024451;28;20101;-64
2022/12/06 04:07:01;;;;;;;25.50;8.18;;;2.40;99.90;;;;;;5027599;28;20414;-64
2022/12/06 04:14:55;;;;;;;23.63;7.70;;;2.40;99.90;;;;;;5022932;28;20151;-62
2022/12/06 04:20:05;;;;;;;58.42;9.90;;;2.50;99.90;;;;;;5024155;28;20474;-64
2022/12/06 04:25:15;;;;;;;50.20;8.93;;;2.40;99.90;;;;;;5024911;28;20530;-64
2022/12/06 04:38:42;;;;;;;29.92;8.80;;;2.50;99.90;;;;;;5020043;28;20052;-64
2022/12/06 04:43:40;;;;;;;18.83;9.10;;;2.50;99.90;;;;;;5049573;23;20045;-68
2022/12/06 04:43:57;;;;;;;31.90;9.02;;;2.50;99.90;;;;;;5020233;28;20561;-68
2022/12/06 04:46:23;;;;;;;40.60;9.40;;;2.50;99.90;;;;;;5019662;28;20029;-68
2022/12/06 04:48:49;;;;;;;45.13;9.63;;;2.50;99.90;;;;;;5020693;28;20037;-67
2022/12/06 04:51:15;;;;;;;53.88;10.00;;;2.50;99.90;;;;;;5024881;28;20051;-67
2022/12/06 04:53:41;;;;;;;25.63;8.60;;;2.50;99.90;;;;;;5023889;28;20911;-67
2022/12/06 04:56:06;;;;;;;37.15;10.85;;;2.50;99.90;;;;;;5014752;28;20033;-67
2022/12/06 04:58:32;;;;;;;21.58;10.85;;;2.50;99.90;;;;;;5025472;28;20418;-67
2022/12/06 05:00:58;;;;;;;40.38;9.95;;;2.60;99.90;;;;;;5025565;28;20029;-68
2022/12/06 05:03:23;;;;;;;43.88;9.75;;;2.50;99.90;;;;;;5020330;28;20447;-67
2022/12/06 05:05:49;;;;;;;56.42;10.02;;;2.50;99.90;;;;;;5023315;28;20044;-67
2022/12/06 05:08:15;;;;;;;32.85;8.73;;;2.40;99.90;;;;;;5018140;28;20025;-66
2022/12/06 05:10:40;;;;;;;23.40;9.85;;;2.50;99.90;;;;;;5024134;28;20036;-67
2022/12/06 05:13:06;;;;;;;46.30;10.50;;;2.50;99.90;;;;;;5027695;28;20075;-67
2022/12/06 05:15:32;;;;;;;61.60;11.48;;;2.50;99.90;;;;;;5027275;28;20032;-67
2022/12/06 05:17:57;;;;;;;36.25;11.15;;;2.50;99.90;;;;;;5014864;28;20071;-67
2022/12/06 05:20:24;;;;;;;38.65;10.23;;;2.50;99.90;;;;;;5022266;28;20463;-68
2022/12/06 05:22:49;;;;;;;58.38;12.23;;;2.50;99.90;;;;;;5024614;28;20026;-68
2022/12/06 05:25:15;;;;;;;61.75;12.55;;;2.50;99.90;;;;;;5023995;28;20035;-67
2022/12/06 05:27:42;;;;;;;42.13;11.30;;;2.50;99.90;;;;;;5023346;28;20064;-67
2022/12/06 05:30:08;;;;;;;48.45;11.45;;;2.60;99.90;;;;;;5020088;28;20030;-67
2022/12/06 05:32:34;;;;;;;31.00;10.02;;;2.50;99.90;;;;;;5026676;28;20108;-68
2022/12/06 05:34:59;;;;;;;32.55;11.20;;;2.50;99.90;;;;;;5018446;28;20435;-67
2022/12/06 05:37:25;;;;;;;73.75;13.93;;;2.50;99.90;;;;;;5027287;28;20087;-67
2022/12/06 05:39:50;;;;;;;35.70;12.35;;;2.50;99.90;;;;;;5027838;28;20029;-67
2022/12/06 05:42:16;;;;;;;44.35;14.32;;;2.50;99.90;;;;;;5016299;28;20470;-67
2022/12/06 05:44:42;;;;;;;138.35;15.40;;;2.50;99.90;;;;;;5014019;28;20026;-67
2022/12/06 05:47:08;;;;;;;53.88;11.63;;;2.60;99.90;;;;;;5024234;28;20028;-67
2022/12/06 05:49:33;;;;;;;82.85;12.90;;;2.60;99.90;;;;;;5014830;28;20396;-67
2022/12/06 05:51:59;;;;;;;49.92;13.80;;;2.50;99.90;;;;;;5027096;28;20047;-67
2022/12/06 05:54:24;;;;;;;63.92;14.45;;;2.60;99.90;;;;;;5024112;28;20037;-67
2022/12/06 05:56:50;;;;;;;35.92;16.02;;;2.60;99.90;;;;;;5026968;28;20064;-69
2022/12/06 05:59:16;;;;;;;85.85;20.67;;;2.60;99.90;;;;;;5025793;28;20036;-68
2022/12/06 06:01:42;;;;;;;40.13;16.55;;;2.60;99.90;;;;;;5021135;28;20665;-67
2022/12/06 06:04:08;;;;;;;82.47;22.92;;;2.60;99.90;;;;;;5023001;28;20056;-67
2022/12/06 06:06:33;;;;;;;63.80;20.27;;;2.60;99.90;;;;;;5023333;28;20083;-68
2022/12/06 06:08:59;;;;;;;54.08;16.23;;;2.60;99.90;;;;;;5026029;28;20069;-66
2022/12/06 06:11:25;;;;;;;44.85;16.08;;;2.60;99.90;;;;;;5026413;28;20574;-67
2022/12/06 06:13:53;;;;;;;46.78;14.77;;;2.60;99.90;;;;;;5024225;28;20096;-68
2022/12/06 06:16:19;;;;;;;45.65;13.60;;;2.60;99.90;;;;;;5023838;28;20025;-69
2022/12/06 06:18:45;;;;;;;56.53;16.52;;;2.60;99.90;;;;;;5022746;28;20570;-68
2022/12/06 06:21:10;;;;;;;52.17;20.10;;;2.60;99.90;;;;;;5024082;28;20102;-68
2022/12/06 06:23:36;;;;;;;51.58;18.95;;;2.60;99.90;;;;;;5018885;28;20034;-68
2022/12/06 06:26:06;;;;;;;51.25;18.30;;;2.60;99.90;;;;;;4997505;28;20147;-67
2022/12/06 06:28:32;;;;;;;63.53;17.95;;;2.60;99.90;;;;;;5019332;28;20037;-67
2022/12/06 06:31:02;;;;;;;59.33;23.33;;;2.60;99.90;;;;;;5028003;28;20033;-66
2022/12/06 06:33:27;;;;;;;44.70;20.33;;;2.60;99.90;;;;;;5021168;28;20756;-67
2022/12/06 06:35:53;;;;;;;56.80;20.02;;;2.60;99.90;;;;;;5022155;28;20033;-68
2022/12/06 06:38:19;;;;;;;61.08;24.73;;;2.70;99.90;;;;;;5025610;28;20112;-67
2022/12/06 06:40:44;;;;;;;81.55;25.80;;;2.70;99.90;;;;;;5023362;28;20026;-67
2022/12/06 06:43:19;;;;;;;116.35;23.77;;;2.70;99.90;;;;;;5027899;28;20018;-68
2022/12/06 06:45:54;;;;;;;164.70;73.97;;;2.70;99.90;;;;;;5024781;28;20036;-67
2022/12/06 06:48:21;;;;;;;62.55;33.05;;;2.70;99.90;;;;;;5027826;28;20084;-67
2022/12/06 06:50:46;;;;;;;50.33;18.25;;;2.70;99.90;;;;;;5023974;28;20047;-67
2022/12/06 06:53:12;;;;;;;43.15;15.20;;;2.70;99.90;;;;;;5026741;28;20469;-67
2022/12/06 06:55:38;;;;;;;51.13;15.23;;;2.70;99.90;;;;;;5017856;28;20050;-66
2022/12/06 06:58:04;;;;;;;49.00;13.65;;;2.80;99.90;;;;;;5021600;28;20033;-67
2022/12/06 07:00:33;;;;;;;62.50;14.98;;;2.70;99.90;;;;;;5022751;28;20075;-69
2022/12/06 07:02:58;;;;;;;44.08;15.10;;;2.70;99.90;;;;;;5019151;28;20040;-65
2022/12/06 07:05:24;;;;;;;52.70;15.90;;;2.70;99.90;;;;;;5016684;28;20402;-67
2022/12/06 07:07:50;;;;;;;45.42;12.70;;;2.80;99.90;;;;;;5017860;28;20078;-67
2022/12/06 07:10:16;;;;;;;49.47;15.60;;;2.70;99.90;;;;;;5021734;28;20917;-67
2022/12/06 07:12:41;;;;;;;50.17;14.63;;;2.70;99.90;;;;;;5031026;28;20485;-67
2022/12/06 07:15:07;;;;;;;55.78;18.45;;;2.80;99.90;;;;;;5021167;28;20113;-66
2022/12/06 07:17:34;;;;;;;79.57;20.63;;;2.80;99.90;;;;;;5025575;28;20029;-67
2022/12/06 07:19:59;;;;;;;60.85;15.32;;;2.80;99.90;;;;;;5021812;28;20022;-66
2022/12/06 07:22:25;;;;;;;71.43;17.95;;;2.80;99.90;;;;;;5028901;28;20441;-66
2022/12/06 07:24:50;;;;;;;50.10;15.65;;;2.80;99.90;;;;;;5023724;28;20021;-66
2022/12/06 07:27:16;;;;;;;50.65;15.38;;;2.80;99.90;;;;;;5008911;28;20041;-67
2022/12/06 07:29:41;;;;;;;53.83;16.15;;;2.80;99.90;;;;;;5028546;28;20032;-66
2022/12/06 07:32:07;;;;;;;32.80;13.40;;;2.80;99.90;;;;;;5014968;28;20030;-66
2022/12/06 07:34:32;;;;;;;35.63;14.80;;;2.80;99.90;;;;;;5017309;28;20045;-66
2022/12/06 07:36:58;;;;;;;77.30;17.10;;;2.90;99.90;;;;;;5012408;28;20118;-64
2022/12/06 07:39:24;;;;;;;52.10;15.88;;;2.90;99.90;;;;;;5027871;28;20021;-66
2022/12/06 07:47:18;;;;;;;49.10;14.65;;;3.00;99.90;;;;;;5027038;28;19915;-66
2022/12/06 07:49:43;;;;;;;42.38;14.77;;;3.00;99.90;;;;;;5026499;28;20038;-66
2022/12/06 07:52:09;;;;;;;53.08;14.80;;;3.00;99.90;;;;;;5025205;28;20041;-66
2022/12/06 07:54:34;;;;;;;52.97;14.20;;;3.00;99.90;;;;;;5021720;28;20033;-67
2022/12/06 07:57:00;;;;;;;43.88;14.35;;;3.00;99.90;;;;;;5028337;28;20029;-67
2022/12/06 07:59:26;;;;;;;46.25;14.35;;;3.00;99.90;;;;;;5024711;28;20025;-66
2022/12/06 08:01:52;;;;;;;65.47;14.68;;;3.10;99.90;;;;;;5027447;28;20057;-67
2022/12/06 08:04:18;;;;;;;48.13;14.85;;;3.10;99.90;;;;;;5022675;28;20088;-66
2022/12/06 08:06:44;;;;;;;56.40;16.08;;;3.10;99.90;;;;;;5027560;28;20627;-66
2022/12/06 08:09:11;;;;;;;49.75;13.10;;;3.10;99.90;;;;;;5029286;28;20108;-67
2022/12/06 08:11:36;;;;;;;91.43;17.23;;;3.10;99.90;;;;;;5024171;28;20101;-66
2022/12/06 08:14:03;;;;;;;39.75;13.60;;;3.10;99.90;;;;;;5022632;28;20112;-66
2022/12/06 08:16:29;;;;;;;45.67;15.88;;;3.20;99.90;;;;;;5026050;28;20025;-66
2022/12/06 08:18:55;;;;;;;44.47;13.68;;;3.20;99.90;;;;;;5018096;28;20632;-66
2022/12/06 08:21:21;;;;;;;38.67;14.50;;;3.20;99.90;;;;;;5010220;28;20593;-66
2022/12/06 08:23:46;;;;;;;54.72;14.68;;;3.20;99.90;;;;;;5017833;28;20030;-67
2022/12/06 08:26:15;;;;;;;61.75;14.88;;;3.30;99.90;;;;;;5012860;28;20051;-66
2022/12/06 08:28:42;;;;;;;52.42;15.40;;;3.30;99.90;;;;;;5023719;28;20088;-66
2022/12/06 08:31:17;;;;;;;72.20;15.68;;;3.30;99.90;;;;;;5021784;28;20057;-67
2022/12/06 08:33:43;;;;;;;52.58;14.88;;;3.30;99.90;;;;;;5022292;28;20051;-66
2022/12/06 08:36:11;;;;;;;85.05;17.40;;;3.40;99.90;;;;;;5020315;28;20048;-67
2022/12/06 08:38:37;;;;;;;53.22;15.93;;;3.40;99.90;;;;;;5016236;28;20502;-67
2022/12/06 08:41:04;;;;;;;61.10;16.45;;;3.40;99.90;;;;;;5027254;28;20044;-67
2022/12/06 08:43:31;;;;;;;64.45;16.63;;;3.50;99.90;;;;;;5025639;28;20029;-66
2022/12/06 08:45:56;;;;;;;74.97;16.65;;;3.50;99.90;;;;;;5012271;28;20144;-66
2022/12/06 08:48:22;;;;;;;69.65;16.38;;;3.50;99.90;;;;;;5010906;28;20052;-66
2022/12/06 08:50:47;;;;;;;79.40;18.85;;;3.50;99.90;;;;;;5026129;28;20490;-67
2022/12/06 08:53:13;;;;;;;87.47;17.33;;;3.50;99.90;;;;;;5025343;28;20034;-66
2022/12/06 08:55:40;;;;;;;67.88;16.92;;;3.50;99.90;;;;;;5028970;28;20037;-67
2022/12/06 08:58:06;;;;;;;77.15;16.00;;;3.50;99.90;;;;;;5027219;28;20025;-67
2022/12/06 09:00:32;;;;;;;61.15;15.52;;;3.50;99.90;;;;;;5024465;28;20099;-66
2022/12/06 09:02:57;;;;;;;51.00;16.00;;;3.50;99.90;;;;;;5028314;28;20479;-65
2022/12/06 09:05:23;;;;;;;46.00;16.15;;;3.60;99.90;;;;;;5020181;28;20072;-65
2022/12/06 09:07:48;;;;;;;57.03;19.35;;;3.60;99.90;;;;;;5020664;28;20037;-66
2022/12/06 09:10:14;;;;;;;46.35;16.15;;;3.70;99.90;;;;;;5022621;28;20067;-66
2022/12/06 09:12:39;;;;;;;52.00;16.80;;;3.70;99.90;;;;;;5027921;28;20100;-67
2022/12/06 09:15:05;;;;;;;60.45;15.25;;;3.70;99.90;;;;;;5025446;28;20029;-66
2022/12/06 09:17:31;;;;;;;36.13;15.68;;;3.70;99.90;;;;;;5019064;28;20386;-67
2022/12/06 09:19:56;;;;;;;47.88;17.75;;;3.70;99.90;;;;;;5026045;28;20029;-67
2022/12/06 09:22:22;;;;;;;37.17;16.63;;;3.80;99.90;;;;;;5026399;28;20471;-67
2022/12/06 09:24:48;;;;;;;44.13;15.88;;;3.80;99.90;;;;;;5023860;28;20029;-66
2022/12/06 09:27:13;;;;;;;42.03;14.65;;;3.80;99.90;;;;;;5001257;28;20045;-65
2022/12/06 09:29:39;;;;;;;35.63;14.27;;;3.90;99.90;;;;;;5020731;28;20044;-66
2022/12/06 09:32:04;;;;;;;42.97;14.77;;;3.90;99.90;;;;;;5023383;28;21598;-66
2022/12/06 09:34:30;;;;;;;36.38;13.38;;;3.90;99.90;;;;;;5022219;28;20025;-66
2022/12/06 09:37:09;;;;;;;40.60;12.98;;;3.90;99.90;;;;;;5020530;28;20033;-66
2022/12/06 09:39:48;;;;;;;46.35;13.40;;;4.00;99.90;;;;;;5019305;28;20025;-67
2022/12/06 09:42:38;;;;;;;37.47;13.93;;;4.00;99.90;;;;;;5026036;28;20025;-67
2022/12/06 09:45:32;;;;;;;62.60;13.73;;;4.00;99.90;;;;;;5011430;28;20052;-66
2022/12/06 09:48:38;;;;;;;55.58;15.18;;;4.10;99.90;;;;;;5016524;28;20080;-67
2022/12/06 09:51:29;;;;;;;51.53;12.93;;;4.00;99.90;;;;;;4946567;28;20031;-67
2022/12/06 09:54:22;;;;;;;39.55;13.45;;;4.10;99.90;;;;;;5017806;28;20045;-67
2022/12/06 09:57:16;;;;;;;58.33;12.95;;;4.00;99.90;;;;;;5012554;28;20025;-67
2022/12/06 09:59:53;;;;;;;56.85;14.75;;;4.00;99.90;;;;;;5022856;28;20030;-66
2022/12/06 10:02:35;;;;;;;63.15;15.00;;;4.00;99.90;;;;;;5022044;28;20045;-67
2022/12/06 10:05:39;;;;;;;40.65;12.15;;;4.00;99.90;;;;;;5022549;28;20501;-66
2022/12/06 10:08:42;;;;;;;38.20;14.93;;;4.10;99.90;;;;;;5013219;28;20546;-67
2022/12/06 10:11:25;;;;;;;65.60;16.10;;;4.10;99.90;;;;;;5020346;28;20033;-67
2022/12/06 10:14:31;;;;;;;68.50;15.85;;;4.10;99.90;;;;;;5016182;28;20045;-67
2022/12/06 10:17:00;;;;;;;56.33;15.55;;;4.20;99.90;;;;;;5023048;28;20034;-66
2022/12/06 10:19:43;;;;;;;45.10;16.40;;;4.30;99.90;;;;;;5024081;28;20051;-66
2022/12/06 10:22:31;;;;;;;41.58;15.70;;;4.30;99.90;;;;;;5013287;28;20037;-67
2022/12/06 10:25:11;;;;;;;53.05;15.50;;;4.30;99.90;;;;;;5027652;28;20037;-67
2022/12/06 10:27:44;;;;;;;34.10;14.23;;;4.30;99.90;;;;;;5022641;28;20041;-67
2022/12/06 10:30:13;;;;;;;45.20;14.98;;;4.30;99.90;;;;;;5036502;28;20581;-67
2022/12/06 10:32:41;;;;;;;41.42;15.05;;;4.40;99.90;;;;;;5040970;28;20090;-68
2022/12/06 10:35:38;;;;;;;30.02;13.93;;;4.40;99.90;;;;;;5031017;28;20033;-68
2022/12/06 10:38:28;;;;;;;34.75;14.50;;;4.40;99.90;;;;;;5037466;28;20033;-68
2022/12/06 10:41:01;;;;;;;34.20;13.85;;;4.50;99.90;;;;;;5038598;28;20086;-67
2022/12/06 10:43:29;;;;;;;25.98;12.88;;;4.50;99.90;;;;;;5043523;28;20053;-68
2022/12/06 10:49:31;;;;;;;32.17;12.23;;;4.60;99.90;;;;;;5043148;28;20063;-65
2022/12/06 10:52:30;;;;;;;29.15;12.90;;;4.70;99.90;;;;;;5041119;28;20029;-67
2022/12/06 10:55:04;;;;;;;29.48;12.52;;;4.70;99.90;;;;;;5023321;28;20056;-67
2022/12/06 10:57:36;;;;;;;26.83;11.50;;;4.80;99.90;;;;;;5037489;28;20031;-67
2022/12/06 11:00:13;;;;;;;20.33;10.63;;;4.90;99.90;;;;;;5042028;28;20440;-67
2022/12/06 11:03:07;;;;;;;27.45;10.77;;;4.80;99.90;;;;;;5040063;28;20088;-67
2022/12/06 11:06:10;;;;;;;18.75;9.55;;;4.90;99.90;;;;;;5032990;28;20034;-67
2022/12/06 11:08:47;;;;;;;17.80;8.57;;;4.90;99.90;;;;;;5034676;28;20129;-67
2022/12/06 11:11:18;;;;;;;16.30;8.07;;;5.00;99.90;;;;;;5044161;28;20040;-67
2022/12/06 11:13:53;;;;;;;15.45;8.40;;;5.00;99.90;;;;;;5031685;28;20504;-66
2022/12/06 11:16:23;;;;;;;;;;;5.00;99.90;;;;;;5041132;28;20457;-66
2022/12/06 11:18:49;;;;;;;16.55;7.38;;;5.00;99.90;;;;;;5042740;28;19919;-67
2022/12/06 11:21:29;;;;;;;19.92;8.90;;;5.00;99.90;;;;;;5052184;28;20016;-66
2022/12/06 11:24:06;;;;;;;16.45;7.95;;;5.00;99.90;;;;;;5039725;28;20029;-67
2022/12/06 11:26:43;;;;;;;18.27;8.63;;;5.00;99.90;;;;;;5044391;28;20064;-67
2022/12/06 11:29:12;;;;;;;18.85;8.25;;;5.10;99.90;;;;;;5044613;28;20063;-67
2022/12/06 11:31:53;;;;;;;21.85;9.10;;;5.00;99.90;;;;;;5042121;28;20127;-66
2022/12/06 11:34:34;;;;;;;22.35;9.70;;;5.10;99.90;;;;;;5043052;28;20661;-66
2022/12/06 11:37:01;;;;;;;20.95;9.75;;;5.20;99.90;;;;;;5046280;28;20036;-65
2022/12/06 11:39:28;;;;;;;20.30;9.30;;;5.20;99.90;;;;;;5046503;28;20025;-67
2022/12/06 11:41:56;;;;;;;17.10;9.07;;;5.30;99.90;;;;;;5042271;28;20055;-67
2022/12/06 11:44:26;;;;;;;23.02;9.27;;;5.20;99.90;;;;;;5043904;28;20107;-67
2022/12/06 11:47:01;;;;;;;17.10;8.95;;;5.30;99.90;;;;;;5046231;28;20052;-67
2022/12/06 11:49:28;;;;;;;22.10;9.18;;;5.30;99.90;;;;;;5024555;28;20029;-67
2022/12/06 11:51:56;;;;;;;18.52;8.30;;;5.30;99.90;;;;;;5042577;28;20426;-67
2022/12/06 11:54:27;;;;;;;20.83;9.18;;;5.20;99.90;;;;;;5041629;28;20549;-68
2022/12/06 11:56:58;;;;;;;22.52;10.40;;;5.30;99.90;;;;;;5044083;28;20060;-67
2022/12/06 11:59:30;;;;;;;17.70;8.93;;;5.30;99.90;;;;;;5042558;28;20672;-67
2022/12/06 12:02:02;;;;;;;17.52;9.10;;;5.30;99.90;;;;;;5043207;28;20033;-67
2022/12/06 12:04:41;;;;;;;21.75;9.38;;;5.30;99.90;;;;;;5038774;28;20030;-67
2022/12/06 12:07:21;;;;;;;20.73;10.63;;;5.30;99.90;;;;;;5043255;28;20052;-68
2022/12/06 12:09:55;;;;;;;19.27;9.38;;;5.40;99.90;;;;;;5022724;28;20045;-67
2022/12/06 12:13:42;;;;;;;16.73;8.63;;;5.40;99.90;;;;;;5047396;28;20573;-67
2022/12/06 12:15:20;;;;;;;17.85;8.88;;;5.30;99.90;;;;;;5042793;28;20037;-67
2022/12/06 12:17:50;;;;;;;20.42;9.38;;;5.30;99.90;;;;;;5045555;28;20036;-67
2022/12/06 12:20:29;;;;;;;18.85;9.98;;;5.30;99.90;;;;;;5042023;28;20025;-67
2022/12/06 12:23:11;;;;;;;23.58;11.23;;;5.30;99.90;;;;;;5028407;28;20502;-68
2022/12/06 12:25:41;;;;;;;22.33;9.60;;;5.40;99.90;;;;;;5045787;28;20398;-66
2022/12/06 12:28:26;;;;;;;21.40;10.23;;;5.40;99.90;;;;;;5033608;28;20056;-68
2022/12/06 12:30:54;;;;;;;23.95;10.35;;;5.40;99.90;;;;;;5019775;28;20112;-68
2022/12/06 12:33:23;;;;;;;20.95;10.65;;;5.50;99.90;;;;;;5036982;28;20052;-67
2022/12/06 12:35:56;;;;;;;21.42;10.82;;;5.40;99.90;;;;;;5038255;28;20447;-67
2022/12/06 12:38:39;;;;;;;20.67;10.40;;;5.40;99.90;;;;;;5026142;28;20556;-68
2022/12/06 12:41:35;;;;;;;21.90;11.07;;;5.50;99.90;;;;;;5040144;28;20044;-67
2022/12/06 12:44:25;;;;;;;25.15;11.80;;;5.50;99.90;;;;;;5038971;28;20033;-67
2022/12/06 12:46:56;;;;;;;26.67;12.70;;;5.40;99.90;;;;;;5040262;28;20547;-68
2022/12/06 12:49:37;;;;;;;23.02;10.95;;;5.40;99.90;;;;;;5033533;28;20154;-67
2022/12/06 12:52:28;;;;;;;23.13;12.00;;;5.40;99.90;;;;;;5036085;28;20487;-67
2022/12/06 12:55:14;;;;;;;35.28;13.25;;;5.40;99.90;;;;;;5044031;28;20028;-67
2022/12/06 12:57:41;;;;;;;27.63;14.80;;;5.30;99.90;;;;;;5046872;28;20350;-67
2022/12/06 13:00:17;;;;;;;31.25;12.98;;;5.30;99.90;;;;;;5046773;28;20025;-67
2022/12/06 13:02:58;;;;;;;26.02;13.55;;;5.30;99.90;;;;;;5038030;28;20727;-68
2022/12/06 13:05:30;;;;;;;23.80;13.18;;;5.30;99.90;;;;;;5046530;28;20031;-68
2022/12/06 13:08:10;;;;;;;25.98;13.95;;;5.40;99.90;;;;;;5048965;28;20064;-67
2022/12/06 13:10:38;;;;;;;26.38;13.05;;;5.30;99.90;;;;;;5026881;28;20033;-67
2022/12/06 13:13:09;;;;;;;23.85;12.40;;;5.40;99.90;;;;;;5039972;28;20044;-67
2022/12/06 13:15:45;;;;;;;27.15;14.23;;;5.40;99.90;;;;;;5050062;28;20036;-68
2022/12/06 13:18:25;;;;;;;28.48;13.35;;;5.40;99.90;;;;;;5040517;28;20407;-68
2022/12/06 13:20:54;;;;;;;29.42;12.75;;;5.40;99.90;;;;;;5046101;28;20082;-68
2022/12/06 13:23:23;;;;;;;27.75;13.48;;;5.40;99.90;;;;;;5050089;28;20047;-67
2022/12/06 13:26:16;;;;;;;24.60;13.00;;;5.40;99.90;;;;;;5040564;28;20025;-67
2022/12/06 13:28:50;;;;;;;27.67;13.70;;;5.50;99.90;;;;;;5031583;28;20045;-67